Maseru, Lesotho
Current Conditions -  °F | °C
As of 1:00 AM on Wednesday 26 Nov 2014 (Local Time) from FABL Reporting Station
NA  
Wind Chill: 59°   Ceiling: NA
Heat Index: 59°   Visibility: 6mi
Dew Point: 54°   Wind: 6mph
Humidity: 82%   Direction: 60°ENE
Pressure: 30.09"   Gusts: NA
Location:  29.31°S, 27.49°E
Report Text: FABL 252300Z AUTO 06005KT 9999 ////// 15/12 Q1019
Loading
Personal Weather Stations






























Interactive Weather Map New forecast layout! Learn more

10-Day Weather Forecast

Advertisements
Track Severe Weather on mobile